Time;durP1;ratioP1;P1;durP2;ratioP2;P2;SDS_P1;SDS_P2;PMS_P1;PMS_P2;Temp;Humidity;BMP_temperature;BMP_pressure;BME280_temperature;BME280_humidity;BME280_pressure;Samples;Min_cycle;Max_cycle;Signal;HPM_P1;HPM_P2
2022/01/02 06:44:22;;;;;;;2.20;0.97;;;;;;;7.87;65.14;95834.13;6157774;23;20524;-81
2022/01/02 06:46:54;;;;;;;1.10;0.90;;;;;;;7.81;65.65;95829.44;6103996;23;20207;-84
2022/01/02 07:29:40;;;;;;;1.80;1.60;;;;;;;8.28;60.37;95818.75;6155445;23;20170;-78
2022/01/02 07:35:31;;;;;;;1.50;1.00;;;;;;;8.44;61.08;95816.56;6146595;23;20242;-84
2022/01/02 07:56:16;;;;;;;2.37;1.90;;;;;;;8.32;62.55;95809.81;6159371;23;20606;-85
2022/01/02 08:02:12;;;;;;;1.07;0.90;;;;;;;8.35;63.22;95804.38;6053124;23;20172;-86
2022/01/02 08:04:40;;;;;;;1.23;0.70;;;;;;;8.39;63.28;95804.03;6044587;23;20185;-85
2022/01/02 08:07:05;;;;;;;1.60;0.90;;;;;;;8.38;62.77;95807.53;6046336;23;20177;-85
2022/01/02 08:09:31;;;;;;;2.90;1.00;;;;;;;8.44;60.49;95804.44;6070793;23;20185;-85
2022/01/02 08:12:19;;;;;;;0.90;0.90;;;;;;;8.62;60.92;95801.25;6069824;23;20161;-84
2022/01/02 08:14:50;;;;;;;5.63;2.40;;;;;;;8.72;62.56;95812.47;6047739;23;20228;-85
2022/01/02 08:17:15;;;;;;;1.67;1.40;;;;;;;8.89;57.24;95798.91;6045250;23;20216;-88
2022/01/02 08:27:19;;;;;;;3.50;2.60;;;;;;;8.61;64.26;95797.03;5925947;24;20196;-86
2022/01/02 08:29:44;;;;;;;1.53;1.20;;;;;;;8.48;64.34;95800.66;5924921;24;20168;-80
2022/01/02 08:32:09;;;;;;;2.87;1.10;;;;;;;8.49;64.90;95809.25;5876050;24;20209;-81
2022/01/02 08:34:35;;;;;;;1.20;1.20;;;;;;;8.47;64.99;95806.75;5898007;24;20165;-83
2022/01/02 08:37:00;;;;;;;1.63;1.20;;;;;;;8.45;65.95;95792.31;5897896;24;20332;-80
2022/01/02 08:46:22;;;;;;;4.60;1.60;;;;;;;8.43;65.65;95799.41;5955614;23;20205;-80
2022/01/02 08:48:47;;;;;;;1.97;1.57;;;;;;;8.49;64.78;95804.06;6121113;23;20172;-83
2022/01/02 08:51:12;;;;;;;1.63;1.10;;;;;;;8.45;66.63;95813.84;6095243;23;20159;-82
2022/01/02 08:53:39;;;;;;;1.47;1.20;;;;;;;8.42;66.48;95803.75;6071948;23;20161;-83
2022/01/02 08:56:19;;;;;;;1.57;1.47;;;;;;;8.40;67.57;95805.66;6072144;23;20184;-84
2022/01/02 08:58:52;;;;;;;2.40;1.67;;;;;;;8.35;68.80;95800.03;6095680;23;20156;-83
2022/01/02 09:01:18;;;;;;;1.70;1.60;;;;;;;8.32;69.56;95796.88;6096006;23;20159;-82
2022/01/02 09:03:43;;;;;;;3.97;1.90;;;;;;;8.29;69.64;95797.09;6094899;23;20247;-82
2022/01/02 09:06:09;;;;;;;1.87;1.70;;;;;;;8.31;70.13;95795.22;6119567;23;20241;-83
2022/01/02 09:08:34;;;;;;;4.33;2.10;;;;;;;8.32;71.06;95796.88;6096109;23;20200;-83
2022/01/02 09:11:02;;;;;;;2.00;1.53;;;;;;;8.38;70.34;95789.41;6095810;23;20675;-83
2022/01/02 09:13:35;;;;;;;1.60;1.40;;;;;;;8.46;70.75;95793.97;6073826;23;20160;-83
2022/01/02 09:16:02;;;;;;;2.00;0.93;;;;;;;8.64;67.41;95795.00;6095309;23;20511;-83
2022/01/02 09:18:27;;;;;;;1.60;1.40;;;;;;;8.68;68.54;95798.97;6105682;23;20204;-83
2022/01/02 09:20:53;;;;;;;1.90;1.70;;;;;;;8.69;70.00;95800.63;6128248;23;20168;-84
2022/01/02 09:23:20;;;;;;;2.50;2.13;;;;;;;8.69;70.88;95818.75;6097052;23;20180;-84
2022/01/02 09:29:22;;;;;;;3.27;2.00;;;;;;;8.78;70.68;95822.31;6037554;23;20180;-84
2022/01/02 09:31:59;;;;;;;3.47;2.23;;;;;;;8.78;69.90;95822.31;6013979;23;20169;-83
2022/01/02 09:34:36;;;;;;;2.10;1.83;;;;;;;8.84;70.03;95814.03;6014720;23;20197;-85
2022/01/02 09:37:12;;;;;;;3.73;2.10;;;;;;;8.90;70.93;95817.84;6013517;23;20194;-84
2022/01/02 09:39:53;;;;;;;2.40;2.00;;;;;;;8.95;71.25;95821.72;5989289;23;20666;-83
2022/01/02 09:42:24;;;;;;;2.93;1.60;;;;;;;8.97;72.35;95824.16;5991763;23;20176;-84
2022/01/02 09:44:57;;;;;;;1.73;1.13;;;;;;;9.05;72.88;95821.75;5988801;23;20601;-85
2022/01/02 09:50:51;;;;;;;2.73;1.30;;;;;;;9.00;76.85;95805.75;6017951;23;20166;-84
2022/01/02 09:53:32;;;;;;;2.83;1.50;;;;;;;9.04;74.65;95802.78;6036172;23;20489;-83
2022/01/02 09:56:08;;;;;;;;;;;;;;;;;;;;;
2022/01/02 09:58:38;;;;;;;2.70;1.30;;;;;;;8.98;75.06;95795.53;6016172;23;20249;-84
2022/01/02 10:01:11;;;;;;;1.53;1.20;;;;;;;8.88;75.33;95799.06;5989771;23;20478;-84
2022/01/02 10:04:04;;;;;;;3.53;1.70;;;;;;;8.94;71.88;95811.47;5995744;23;20182;-84
2022/01/02 10:07:05;;;;;;;1.50;1.37;;;;;;;8.99;67.56;95820.47;6074091;23;20288;-83
2022/01/02 10:09:38;;;;;;;8.30;3.80;;;;;;;9.28;61.60;95818.00;6120554;23;20590;-84
2022/01/02 10:12:37;;;;;;;3.73;1.77;;;;;;;9.63;59.66;95801.13;6071005;23;20161;-83
2022/01/02 10:15:38;;;;;;;1.67;1.40;;;;;;;9.79;58.05;95787.59;6120466;23;20196;-83
2022/01/02 10:18:56;;;;;;;1.17;1.07;;;;;;;10.14;54.20;95790.44;6120591;23;20186;-83
2022/01/02 10:21:44;;;;;;;1.37;1.20;;;;;;;10.61;52.32;95787.94;6096062;23;20157;-82
2022/01/02 10:24:51;;;;;;;1.10;0.87;;;;;;;10.73;51.85;95763.41;6071968;23;20188;-83
2022/01/02 10:27:22;;;;;;;3.23;1.83;;;;;;;10.92;51.50;95759.91;6119790;23;20189;-83
2022/01/02 10:30:07;;;;;;;3.03;1.70;;;;;;;10.99;52.21;95755.75;6097067;23;20169;-83
2022/01/02 10:32:48;;;;;;;21.23;10.27;;;;;;;11.20;51.59;95749.47;6074375;23;20152;-83
2022/01/02 10:35:48;;;;;;;14.80;10.30;;;;;;;11.41;49.13;95731.03;6097605;23;20370;-84
2022/01/02 10:38:19;;;;;;;11.43;8.07;;;;;;;11.82;47.17;95730.44;6097298;23;20168;-85
2022/01/02 10:41:10;;;;;;;2.27;2.00;;;;;;;12.03;46.17;95756.13;6095236;23;20160;-84
2022/01/02 10:43:38;;;;;;;1.50;1.13;;;;;;;12.16;46.20;95766.97;6119587;23;20213;-84
2022/01/02 10:46:18;;;;;;;1.10;0.90;;;;;;;12.23;45.55;95768.97;6118866;23;20184;-84
2022/01/02 10:48:55;;;;;;;1.00;0.90;;;;;;;12.25;45.70;95774.84;6071898;23;20221;-84
2022/01/02 10:51:30;;;;;;;0.80;0.80;;;;;;;12.31;46.68;95784.66;6072262;23;20156;-86
2022/01/02 10:54:01;;;;;;;0.80;0.80;;;;;;;12.31;46.79;95789.84;6104322;23;20152;-84
2022/01/02 10:56:37;;;;;;;0.90;0.90;;;;;;;12.34;46.55;95779.94;6091991;23;20180;-84
2022/01/02 10:59:17;;;;;;;1.83;0.87;;;;;;;12.35;45.99;95775.56;6095192;23;20183;-84
2022/01/02 11:01:50;;;;;;;1.40;1.00;;;;;;;12.30;46.80;95777.81;6097890;23;20552;-84
2022/01/02 11:04:18;;;;;;;18.63;16.60;;;;;;;12.15;47.76;95782.75;6092349;23;20307;-86
2022/01/02 11:06:55;;;;;;;20.10;13.23;;;;;;;12.26;45.51;95772.06;6091559;23;20188;-84
2022/01/02 11:09:21;;;;;;;2.63;1.90;;;;;;;12.33;45.36;95778.31;6100821;23;20160;-86
2022/01/02 11:11:54;;;;;;;1.33;1.20;;;;;;;12.36;44.60;95764.16;6097288;23;20235;-85
2022/01/02 11:14:25;;;;;;;1.00;0.90;;;;;;;12.36;45.94;95751.13;6100158;23;20189;-84
2022/01/02 11:16:54;;;;;;;1.00;0.90;;;;;;;12.40;44.32;95736.84;6102548;23;20172;-85
2022/01/02 11:19:30;;;;;;;2.17;0.87;;;;;;;12.55;42.57;95740.53;6105416;23;20204;-86
2022/01/02 11:22:08;;;;;;;0.83;0.83;;;;;;;12.72;42.23;95731.81;6074237;23;20481;-85
2022/01/02 11:24:47;;;;;;;0.90;0.80;;;;;;;12.99;40.62;95732.59;6097895;23;20176;-87
2022/01/02 11:27:20;;;;;;;1.00;0.90;;;;;;;12.97;42.15;95735.31;6073862;23;20180;-83
2022/01/02 11:30:00;;;;;;;1.83;1.00;;;;;;;13.02;41.41;95753.94;6097565;23;20247;-85
2022/01/02 11:32:35;;;;;;;1.53;1.30;;;;;;;13.00;42.29;95765.50;6096994;23;20191;-85
2022/01/02 11:35:32;;;;;;;1.10;1.00;;;;;;;13.11;41.44;95785.25;6099058;23;20153;-84
2022/01/02 11:38:07;;;;;;;4.00;0.93;;;;;;;13.00;42.07;95781.13;6075268;23;20160;-85
2022/01/02 11:41:04;;;;;;;1.67;1.40;;;;;;;13.05;42.28;95771.03;6096502;23;20184;-84
2022/01/02 11:43:36;;;;;;;0.80;0.70;;;;;;;12.99;41.81;95775.09;6073124;23;20713;-85
2022/01/02 11:46:27;;;;;;;1.00;0.90;;;;;;;13.01;42.38;95754.91;6097548;23;20177;-83
2022/01/02 11:49:18;;;;;;;0.83;0.80;;;;;;;13.03;42.77;95752.13;6097179;23;20156;-83
2022/01/02 11:52:26;;;;;;;1.10;1.00;;;;;;;12.99;42.79;95753.44;6118218;23;20512;-84
2022/01/02 11:54:57;;;;;;;1.50;0.80;;;;;;;12.81;43.60;95731.81;6097076;23;20251;-83
2022/01/02 11:57:26;;;;;;;1.30;1.20;;;;;;;12.85;43.17;95730.56;6072405;23;20184;-85
2022/01/02 12:00:00;;;;;;;1.10;1.00;;;;;;;12.78;43.83;95709.50;6120452;23;20216;-86
2022/01/02 12:02:26;;;;;;;2.00;1.10;;;;;;;12.80;43.97;95709.34;6071538;23;20156;-84
2022/01/02 12:07:40;;;;;;;1.90;1.70;;;;;;;12.82;44.62;95702.22;6099229;23;20192;-84
2022/01/02 12:10:16;;;;;;;1.53;1.27;;;;;;;12.76;44.39;95691.44;6122038;23;20161;-84
2022/01/02 12:13:02;;;;;;;2.97;1.30;;;;;;;12.88;44.42;95683.31;6121330;23;20160;-85
2022/01/02 12:16:18;;;;;;;1.40;1.23;;;;;;;12.88;45.34;95683.31;6097060;23;20224;-84
2022/01/02 12:18:58;;;;;;;1.53;1.30;;;;;;;12.99;46.58;95693.47;6037687;23;20166;-83
2022/01/02 12:21:28;;;;;;;1.43;1.33;;;;;;;12.92;45.99;95689.88;5990487;23;20182;-83
2022/01/02 12:23:58;;;;;;;2.17;1.23;;;;;;;12.88;46.90;95685.94;5991418;23;20232;-83
2022/01/02 12:26:39;;;;;;;4.80;4.10;;;;;;;13.00;46.97;95682.88;6014448;23;20190;-84
2022/01/02 12:29:12;;;;;;;2.30;2.10;;;;;;;12.96;46.86;95670.31;5990626;23;20157;-84
2022/01/02 12:31:48;;;;;;;2.47;1.80;;;;;;;13.04;47.66;95678.16;6013648;23;20162;-84
2022/01/02 12:34:20;;;;;;;2.57;1.50;;;;;;;13.13;48.23;95677.19;5989391;23;20154;-84
2022/01/02 12:36:52;;;;;;;2.53;1.80;;;;;;;13.16;48.80;95668.22;5990096;23;20197;-85
2022/01/02 12:39:28;;;;;;;4.00;1.57;;;;;;;13.00;48.58;95664.63;6013817;23;20158;-84
2022/01/02 12:41:58;;;;;;;3.30;1.40;;;;;;;13.13;49.29;95655.53;5989970;23;20157;-79
2022/01/02 12:44:40;;;;;;;3.50;1.80;;;;;;;13.07;49.66;95659.56;6036835;23;20568;-83
2022/01/02 12:47:12;;;;;;;3.67;1.40;;;;;;;13.08;50.60;95645.59;5988632;23;20221;-83
2022/01/02 12:49:48;;;;;;;4.27;1.60;;;;;;;13.00;51.00;95656.81;5990591;23;20241;-84
2022/01/02 12:52:25;;;;;;;2.90;1.83;;;;;;;12.90;51.12;95640.50;5998319;23;20154;-84
2022/01/02 12:54:50;;;;;;;2.40;1.60;;;;;;;12.98;52.07;95644.91;6020384;23;20161;-84
2022/01/02 12:57:21;;;;;;;5.80;2.23;;;;;;;12.72;52.98;95648.44;6098001;23;20187;-84
2022/01/02 12:59:54;;;;;;;2.17;1.47;;;;;;;12.93;53.58;95640.19;6074125;23;20171;-81
2022/01/02 13:02:21;;;;;;;4.17;1.77;;;;;;;12.81;54.38;95630.19;6095813;23;20149;-78
2022/01/02 13:05:02;;;;;;;3.57;1.77;;;;;;;12.85;54.07;95619.31;6096242;23;20236;-83
2022/01/02 13:07:30;;;;;;;6.23;2.47;;;;;;;12.84;54.58;95607.25;6098353;23;20263;-83
2022/01/02 13:09:58;;;;;;;4.30;1.40;;;;;;;12.66;54.11;95612.59;6098236;23;20237;-82
2022/01/02 13:12:32;;;;;;;4.00;2.00;;;;;;;12.58;55.26;95606.53;6096632;23;20272;-83
2022/01/02 13:14:59;;;;;;;3.23;2.00;;;;;;;12.65;55.15;95597.94;6073876;23;20509;-83
2022/01/02 13:17:25;;;;;;;6.03;2.40;;;;;;;12.61;56.01;95598.41;6096785;23;20257;-83
2022/01/02 13:19:59;;;;;;;3.17;1.80;;;;;;;12.52;56.03;95600.16;6096905;23;20165;-84
2022/01/02 13:22:26;;;;;;;3.00;2.33;;;;;;;12.58;55.56;95589.13;6120350;23;20156;-84
2022/01/02 13:24:53;;;;;;;2.83;2.00;;;;;;;12.52;56.73;95588.94;6097017;23;20169;-83
2022/01/02 13:27:20;;;;;;;3.87;1.70;;;;;;;12.35;57.13;95594.06;6096381;23;20184;-84
2022/01/02 13:30:00;;;;;;;3.27;1.33;;;;;;;12.40;57.40;95601.44;6123321;23;20152;-83
2022/01/02 13:32:27;;;;;;;2.00;1.70;;;;;;;12.35;57.29;95609.69;6098870;23;20152;-83
2022/01/02 13:35:22;;;;;;;2.23;2.03;;;;;;;12.15;56.88;95609.13;6099549;23;20160;-83
2022/01/02 13:38:06;;;;;;;;;;;;;;;;;;;;;
2022/01/02 13:40:40;;;;;;;3.27;1.77;;;;;;;12.23;57.54;95613.56;6122894;23;20208;-82
2022/01/02 14:34:34;;;;;;;;;;;;;;;;;;;;;
2022/01/02 14:55:26;;;;;;;5.65;2.22;;;;;;;11.99;59.67;95676.72;5844159;24;20999;-83
2022/01/02 15:12:23;;;;;;;6.03;3.97;;;;;;;11.43;62.36;95695.28;5952991;24;20216;-83
2022/01/02 16:21:57;;;;;;;19.00;12.97;;;;;;;9.87;69.77;95718.53;6059479;23;20543;-81
2022/01/02 16:24:24;;;;;;;15.87;10.37;;;;;;;9.89;69.14;95731.34;6065744;23;20252;-82
2022/01/02 17:28:13;;;;;;;11.33;7.47;;;;;;;7.49;78.07;95743.31;6024647;23;20279;-81
2022/01/02 17:48:07;;;;;;;4.17;3.23;;;;;;;7.37;78.41;95752.91;5821146;24;20198;-80
2022/01/02 17:50:33;;;;;;;4.00;2.70;;;;;;;7.45;77.92;95754.88;5816155;24;20171;-80
2022/01/02 21:22:56;;;;;;;4.13;1.90;;;;;;;9.49;70.50;95622.66;5932228;24;20159;-81
2022/01/02 21:51:49;;;;;;;;;;;;;;;;;;;;;
2022/01/02 23:16:17;;;;;;;;;;;;;;;;;;;;;
